TimePST,TemperatureF,Dew PointF,Humidity,Sea Level PressureIn,VisibilityMPH,Wind Direction,Wind SpeedMPH,Gust SpeedMPH,PrecipitationIn,Events,Conditions,WindDirDegrees,DateUTC
12:56 AM,37.0,30.9,79,30.29,10.0,Calm,Calm,-,N/A,,Clear,0,2013-01-17 08:56:00
1:56 AM,37.0,30.9,79,30.29,10.0,Calm,Calm,-,N/A,,Clear,0,2013-01-17 09:56:00
2:56 AM,37.0,30.9,79,30.28,10.0,Calm,Calm,-,N/A,,Clear,0,2013-01-17 10:56:00
3:56 AM,36.0,30.9,82,30.27,10.0,Calm,Calm,-,N/A,,Clear,0,2013-01-17 11:56:00
4:56 AM,34.0,30.0,85,30.26,10.0,Calm,Calm,-,N/A,,Clear,0,2013-01-17 12:56:00
5:56 AM,35.1,30.0,82,30.25,10.0,Calm,Calm,-,N/A,,Clear,0,2013-01-17 13:56:00
6:56 AM,35.1,30.0,82,30.26,10.0,Calm,Calm,-,N/A,,Clear,0,2013-01-17 14:56:00
7:56 AM,36.0,30.9,82,30.27,9.0,Calm,Calm,-,N/A,,Clear,0,2013-01-17 15:56:00
8:56 AM,43.0,34.0,71,30.28,10.0,Calm,Calm,-,N/A,,Clear,0,2013-01-17 16:56:00
9:56 AM,48.9,36.0,61,30.28,9.0,Calm,Calm,-,N/A,,Clear,0,2013-01-17 17:56:00
10:56 AM,51.1,36.0,56,30.27,8.0,Calm,Calm,-,N/A,,Clear,0,2013-01-17 18:56:00
11:56 AM,55.9,36.0,47,30.23,9.0,North,3.5,-,N/A,,Clear,10,2013-01-17 19:56:00
12:56 PM,57.0,35.1,44,30.21,9.0,North,3.5,-,N/A,,Clear,350,2013-01-17 20:56:00
1:56 PM,60.1,36.0,41,30.18,9.0,NNW,3.5,-,N/A,,Clear,340,2013-01-17 21:56:00
2:56 PM,61.0,37.0,41,30.17,9.0,North,4.6,-,N/A,,Clear,350,2013-01-17 22:56:00
3:56 PM,61.0,36.0,39,30.17,10.0,Calm,Calm,-,N/A,,Clear,0,2013-01-17 23:56:00
4:56 PM,59.0,35.1,41,30.17,10.0,NNW,6.9,-,N/A,,Clear,330,2013-01-18 00:56:00
5:56 PM,54.0,35.1,49,30.18,10.0,North,10.4,-,N/A,,Clear,10,2013-01-18 01:56:00
6:56 PM,52.0,36.0,54,30.18,10.0,North,5.8,-,N/A,,Clear,350,2013-01-18 02:56:00
7:56 PM,50.0,37.0,61,30.18,10.0,Calm,Calm,-,N/A,,Clear,0,2013-01-18 03:56:00
8:56 PM,48.0,36.0,63,30.19,10.0,Calm,Calm,-,N/A,,Clear,0,2013-01-18 04:56:00
9:56 PM,44.1,35.1,71,30.19,10.0,Calm,Calm,-,N/A,,Clear,0,2013-01-18 05:56:00
10:56 PM,44.1,35.1,71,30.19,10.0,Calm,Calm,-,N/A,,Clear,0,2013-01-18 06:56:00
11:56 PM,41.0,34.0,76,30.20,10.0,Calm,Calm,-,N/A,,Clear,0,2013-01-18 07:56:00